Terminal Aerodrome Forecast
Issued by NWS

Home | Current Version | Previous Version | Text Only | Print | Product List | Glossary On
Versions: 1 2 3 4 5 6 7 8 9 10 11 12 13 14 15 16 17 18 19 20 21 22 23 24 25 26 27 28 29 30 31
000
FTUS43 KDDC 221720
TAFHYS
TAF
KHYS 221720Z 2218/2318 19011KT P6SM FEW100
     FM222300 16010KT P6SM VCTS BKN050CB
     FM230400 17010KT P6SM FEW100
     FM231000 17005KT 1SM BR OVC003=

USA.gov is the U.S. government's official web portal to all federal, state and local government web resources and services.